Terminal Aerodrome Forecast
Issued by NWS

Home | Current Version | Previous Version | Text Only | Print | Product List | Glossary On
Versions: 1 2 3 4 5 6 7 8 9 10 11 12 13 14
946
FTUS46 KSGX 070520
TAFSNA
TAF
KSNA 070520Z 0706/0806 VRB03KT P6SM SKC WS010/06020KT
     FM071900 06012G22KT P6SM SKC
     FM080000 04009KT P6SM SKC=

USA.gov is the U.S. government's official web portal to all federal, state and local government web resources and services.